Time;durP1;ratioP1;P1;durP2;ratioP2;P2;SDS_P1;SDS_P2;PMS_P1;PMS_P2;Temp;Humidity;BMP_temperature;BMP_pressure;BME280_temperature;BME280_humidity;BME280_pressure;Samples;Min_cycle;Max_cycle;Signal;HPM_P1;HPM_P2
2021/04/17 00:00:32;;;;;;;3.70;2.47;;;6.20;99.90;;;;;;5094344;28;20207;-64
2021/04/17 00:02:59;;;;;;;3.40;2.43;;;6.20;99.90;;;;;;5094788;28;20204;-64
2021/04/17 00:05:26;;;;;;;4.00;2.30;;;6.20;99.90;;;;;;5094405;28;20252;-65
2021/04/17 00:07:53;;;;;;;3.13;2.00;;;6.20;99.90;;;;;;5094663;28;20202;-64
2021/04/17 00:10:20;;;;;;;2.77;2.03;;;6.30;99.90;;;;;;5094460;28;20248;-63
2021/04/17 00:12:48;;;;;;;3.33;2.20;;;6.30;99.90;;;;;;5094526;28;20226;-64
2021/04/17 00:15:15;;;;;;;2.43;2.00;;;6.30;99.90;;;;;;5094660;28;20325;-64
2021/04/17 00:17:42;;;;;;;2.80;1.70;;;6.20;99.90;;;;;;5094431;28;20224;-64
2021/04/17 00:20:09;;;;;;;3.00;1.60;;;6.20;99.90;;;;;;5094421;28;20320;-63
2021/04/17 00:22:36;;;;;;;3.17;2.00;;;6.20;99.90;;;;;;5094501;28;20213;-65
2021/04/17 00:25:04;;;;;;;2.70;2.00;;;6.10;99.90;;;;;;5094199;28;20564;-64
2021/04/17 00:27:30;;;;;;;7.10;2.57;;;6.10;99.90;;;;;;5094180;28;20261;-64
2021/04/17 00:29:58;;;;;;;2.93;1.93;;;6.20;99.90;;;;;;5094354;28;20230;-65
2021/04/17 00:32:25;;;;;;;2.47;1.83;;;6.10;99.90;;;;;;5094260;28;20202;-63
2021/04/17 00:34:52;;;;;;;4.50;1.80;;;6.10;99.90;;;;;;5094146;28;20273;-63
2021/04/17 00:37:19;;;;;;;5.37;2.30;;;6.10;99.90;;;;;;5094104;28;20573;-64
2021/04/17 00:39:46;;;;;;;3.07;1.70;;;6.10;99.90;;;;;;5093132;28;20289;-64
2021/04/17 00:42:13;;;;;;;4.43;1.87;;;6.10;99.90;;;;;;5093938;28;20256;-65
2021/04/17 00:44:40;;;;;;;2.73;1.70;;;6.00;99.90;;;;;;5093794;28;20298;-64
2021/04/17 00:47:08;;;;;;;3.57;2.07;;;5.80;99.90;;;;;;5093935;28;20198;-64
2021/04/17 00:49:55;;;;;;;3.33;1.53;;;5.70;99.90;;;;;;5093493;28;20701;-63
2021/04/17 00:52:22;;;;;;;4.23;1.80;;;5.60;99.90;;;;;;5093520;28;20213;-63
2021/04/17 00:54:49;;;;;;;2.03;1.63;;;5.60;99.90;;;;;;5093522;28;20211;-64
2021/04/17 00:57:16;;;;;;;3.73;1.60;;;5.60;99.90;;;;;;5093790;28;20254;-64
2021/04/17 00:59:43;;;;;;;3.97;1.67;;;5.70;99.90;;;;;;5093417;28;20294;-64
2021/04/17 01:02:16;;;;;;;3.60;1.67;;;5.70;99.90;;;;;;5093695;28;20627;-63
2021/04/17 01:04:48;;;;;;;3.40;1.70;;;5.70;99.90;;;;;;5093291;28;20244;-64
2021/04/17 01:07:21;;;;;;;2.70;1.60;;;5.70;99.90;;;;;;5093727;28;20223;-63
2021/04/17 01:09:52;;;;;;;2.63;1.60;;;5.70;99.90;;;;;;5093308;28;20286;-65
2021/04/17 01:12:27;;;;;;;3.50;1.50;;;5.70;99.90;;;;;;5093236;28;20226;-64
2021/04/17 01:14:54;;;;;;;3.93;1.57;;;5.80;99.90;;;;;;5092997;28;20281;-65
2021/04/17 01:17:22;;;;;;;3.87;1.60;;;5.90;99.90;;;;;;5093440;28;20321;-65
2021/04/17 01:20:01;;;;;;;2.87;1.60;;;6.00;99.90;;;;;;5093368;28;20237;-64
2021/04/17 01:22:29;;;;;;;3.00;1.50;;;6.00;99.90;;;;;;5093272;28;20187;-64
2021/04/17 01:25:05;;;;;;;3.43;1.40;;;5.90;99.90;;;;;;5093032;28;20666;-65
2021/04/17 01:27:33;;;;;;;3.10;1.80;;;5.90;99.90;;;;;;5092755;28;20267;-64
2021/04/17 01:30:01;;;;;;;4.63;1.60;;;5.90;99.90;;;;;;5093025;28;20197;-64
2021/04/17 01:32:30;;;;;;;2.43;1.47;;;5.90;99.90;;;;;;5093369;28;20234;-63
2021/04/17 01:34:58;;;;;;;3.47;1.60;;;5.90;99.90;;;;;;5093101;28;20655;-61
2021/04/17 01:38:00;;;;;;;1.43;1.30;;;5.80;99.90;;;;;;5092702;28;20769;-61
2021/04/17 01:40:30;;;;;;;3.73;1.37;;;5.70;99.90;;;;;;5092449;28;20580;-60
2021/04/17 01:42:58;;;;;;;2.13;1.40;;;5.90;99.90;;;;;;5092780;28;20686;-60
2021/04/17 01:45:27;;;;;;;3.03;1.40;;;5.80;99.90;;;;;;5087541;28;20765;-61
2021/04/17 01:47:56;;;;;;;4.93;1.83;;;5.80;99.90;;;;;;5082933;28;20200;-61
2021/04/17 01:50:25;;;;;;;1.70;1.60;;;5.80;99.90;;;;;;5092939;28;20612;-61
2021/04/17 01:52:53;;;;;;;3.80;1.70;;;5.90;99.90;;;;;;5092979;28;20207;-61
2021/04/17 01:55:21;;;;;;;1.70;1.57;;;5.80;99.90;;;;;;5093182;28;20297;-62
2021/04/17 01:57:48;;;;;;;3.50;1.53;;;5.90;99.90;;;;;;5092635;28;20827;-60
2021/04/17 02:00:18;;;;;;;1.80;1.43;;;5.80;99.90;;;;;;5092521;28;20524;-60
2021/04/17 02:02:45;;;;;;;3.03;1.60;;;5.70;99.90;;;;;;5092644;28;20761;-60
2021/04/17 02:05:13;;;;;;;1.90;1.60;;;5.70;99.90;;;;;;5092831;28;20199;-61
2021/04/17 02:07:40;;;;;;;3.33;1.67;;;5.70;99.90;;;;;;5092829;28;20233;-60
2021/04/17 02:10:08;;;;;;;3.03;1.70;;;5.60;99.90;;;;;;5092792;28;20284;-61
2021/04/17 02:12:35;;;;;;;3.87;1.60;;;5.60;99.90;;;;;;5092425;28;20238;-60
2021/04/17 02:15:05;;;;;;;5.73;1.70;;;5.70;99.90;;;;;;5092408;28;20249;-61
2021/04/17 02:17:41;;;;;;;2.40;1.50;;;5.70;99.90;;;;;;5092331;28;20219;-61
2021/04/17 02:20:12;;;;;;;2.37;1.57;;;5.60;99.90;;;;;;5092532;28;20190;-60
2021/04/17 02:22:40;;;;;;;2.97;1.50;;;5.70;99.90;;;;;;5092393;28;20609;-61
2021/04/17 02:25:08;;;;;;;3.20;1.60;;;5.60;99.90;;;;;;5092576;28;20203;-60
2021/04/17 02:27:36;;;;;;;2.07;1.70;;;5.60;99.90;;;;;;5092247;28;20236;-62
2021/04/17 02:30:04;;;;;;;2.50;1.60;;;5.60;99.90;;;;;;5092117;28;20301;-60
2021/04/17 02:32:31;;;;;;;1.70;1.47;;;5.60;99.90;;;;;;5092592;28;20242;-60
2021/04/17 02:34:59;;;;;;;2.53;1.57;;;5.50;99.90;;;;;;5092418;28;20230;-61
2021/04/17 02:37:26;;;;;;;2.50;1.43;;;5.40;99.90;;;;;;5092175;28;20293;-60
2021/04/17 02:39:53;;;;;;;3.93;1.80;;;5.60;99.90;;;;;;5092132;28;20219;-61
2021/04/17 02:42:19;;;;;;;2.53;1.63;;;5.50;99.90;;;;;;5092470;28;20549;-60
2021/04/17 02:44:46;;;;;;;2.30;1.50;;;5.60;99.90;;;;;;5092273;28;20201;-61
2021/04/17 02:47:13;;;;;;;2.17;1.50;;;5.60;99.90;;;;;;5092494;28;20293;-60
2021/04/17 02:49:40;;;;;;;2.20;1.43;;;5.60;99.90;;;;;;5092401;28;20203;-60
2021/04/17 02:52:08;;;;;;;4.57;1.60;;;5.50;99.90;;;;;;5092068;28;20208;-61
2021/04/17 02:54:35;;;;;;;2.57;1.60;;;5.40;99.90;;;;;;5092522;28;20288;-61
2021/04/17 02:57:02;;;;;;;3.90;1.40;;;5.40;99.90;;;;;;5092362;28;20575;-59
2021/04/17 02:59:29;;;;;;;4.50;1.73;;;5.30;99.90;;;;;;5091832;28;20257;-60
2021/04/17 03:01:56;;;;;;;2.97;1.80;;;5.30;99.90;;;;;;5092371;28;20206;-60
2021/04/17 03:04:23;;;;;;;2.13;1.50;;;5.20;99.90;;;;;;5096078;28;20236;-61
2021/04/17 03:06:50;;;;;;;3.63;1.67;;;5.30;99.90;;;;;;5095667;28;20248;-60
2021/04/17 03:09:17;;;;;;;2.00;1.80;;;5.30;99.90;;;;;;5095996;28;20783;-60
2021/04/17 03:11:44;;;;;;;2.93;1.67;;;5.20;99.90;;;;;;5095618;28;20296;-61
2021/04/17 03:14:11;;;;;;;3.00;1.70;;;5.10;99.90;;;;;;5095731;28;20239;-59
2021/04/17 03:16:38;;;;;;;2.47;1.43;;;5.10;99.90;;;;;;5095838;28;20317;-60
2021/04/17 03:19:06;;;;;;;1.77;1.47;;;5.10;99.90;;;;;;5095318;28;20306;-60
2021/04/17 03:21:33;;;;;;;3.23;1.30;;;5.00;99.90;;;;;;5095503;28;20206;-61
2021/04/17 03:24:00;;;;;;;2.10;1.40;;;5.10;99.90;;;;;;5095623;28;20217;-61
2021/04/17 03:26:28;;;;;;;2.23;1.63;;;5.00;99.90;;;;;;5095060;28;20295;-60
2021/04/17 03:28:54;;;;;;;2.83;1.63;;;5.00;99.90;;;;;;5095430;28;20280;-60
2021/04/17 03:31:21;;;;;;;2.90;1.77;;;5.00;99.90;;;;;;5095273;28;20235;-59
2021/04/17 03:33:48;;;;;;;1.73;1.33;;;4.90;99.90;;;;;;5095455;28;20198;-61
2021/04/17 03:36:15;;;;;;;3.27;1.60;;;5.00;99.90;;;;;;5094971;28;20202;-60
2021/04/17 03:38:42;;;;;;;2.33;1.70;;;5.00;99.90;;;;;;5095265;28;20218;-60
2021/04/17 03:41:09;;;;;;;3.60;1.83;;;5.00;99.90;;;;;;5095281;28;20218;-62
2021/04/17 03:43:37;;;;;;;2.30;1.47;;;4.90;99.90;;;;;;5094909;28;20205;-60
2021/04/17 03:46:04;;;;;;;2.13;1.53;;;4.90;99.90;;;;;;5095163;28;20287;-62
2021/04/17 03:48:31;;;;;;;2.20;1.60;;;4.80;99.90;;;;;;5094966;28;20202;-61
2021/04/17 03:50:59;;;;;;;3.40;1.60;;;4.70;99.90;;;;;;5095070;28;20292;-60
2021/04/17 03:53:26;;;;;;;1.80;1.40;;;4.70;99.90;;;;;;5094728;28;20300;-60
2021/04/17 03:55:52;;;;;;;1.80;1.23;;;4.70;99.90;;;;;;5094603;28;20704;-60
2021/04/17 03:58:19;;;;;;;2.27;1.53;;;4.70;99.90;;;;;;5092003;28;20329;-60
2021/04/17 04:00:47;;;;;;;3.57;1.47;;;4.50;99.90;;;;;;5094720;28;20296;-59
2021/04/17 04:03:14;;;;;;;1.67;1.50;;;4.60;99.90;;;;;;5094728;28;20627;-60
2021/04/17 04:05:41;;;;;;;3.23;1.43;;;4.50;99.90;;;;;;5094612;28;20197;-59
2021/04/17 04:08:08;;;;;;;2.20;1.40;;;4.50;99.90;;;;;;5094753;28;20390;-60
2021/04/17 04:10:35;;;;;;;2.93;1.40;;;4.50;99.90;;;;;;5094831;28;20211;-60
2021/04/17 04:13:02;;;;;;;2.10;1.53;;;4.60;99.90;;;;;;5094229;28;20398;-60
2021/04/17 04:15:29;;;;;;;2.67;1.50;;;4.60;99.90;;;;;;5093573;28;20213;-60
2021/04/17 04:17:56;;;;;;;2.20;1.40;;;4.60;99.90;;;;;;5094236;28;20314;-61
2021/04/17 04:20:23;;;;;;;4.10;1.40;;;4.50;99.90;;;;;;5094357;28;20202;-60
2021/04/17 04:22:50;;;;;;;2.40;1.33;;;4.60;99.90;;;;;;5094609;28;20206;-61
2021/04/17 04:25:17;;;;;;;2.70;1.40;;;4.70;99.90;;;;;;5094445;28;20207;-60
2021/04/17 04:27:44;;;;;;;1.40;1.23;;;4.70;99.90;;;;;;5093666;28;20319;-59
2021/04/17 04:30:12;;;;;;;2.10;1.40;;;4.80;99.90;;;;;;5093953;28;20241;-60
2021/04/17 04:32:39;;;;;;;1.90;1.57;;;4.80;99.90;;;;;;5094024;28;20244;-60
2021/04/17 04:35:08;;;;;;;1.97;1.50;;;4.80;99.90;;;;;;5093817;28;20206;-60
2021/04/17 04:37:35;;;;;;;1.73;1.50;;;4.80;99.90;;;;;;5094042;28;20202;-60
2021/04/17 04:40:04;;;;;;;1.60;1.40;;;4.80;99.90;;;;;;5094155;28;20237;-59
2021/04/17 04:42:31;;;;;;;1.57;1.40;;;4.80;99.90;;;;;;5093411;28;20237;-61
2021/04/17 04:44:58;;;;;;;2.47;1.60;;;4.90;99.90;;;;;;5093893;28;20235;-60
2021/04/17 04:47:25;;;;;;;1.77;1.43;;;4.90;99.90;;;;;;5093639;28;20737;-61
2021/04/17 04:49:52;;;;;;;2.67;1.70;;;4.90;99.90;;;;;;5093817;28;20261;-61
2021/04/17 04:52:21;;;;;;;1.47;1.37;;;5.00;99.90;;;;;;5093616;28;20213;-60
2021/04/17 04:54:48;;;;;;;2.57;1.57;;;5.00;99.90;;;;;;5093733;28;20389;-60
2021/04/17 04:57:15;;;;;;;2.33;1.53;;;5.00;99.90;;;;;;5093560;28;20297;-60
2021/04/17 04:59:41;;;;;;;3.30;1.67;;;5.00;99.90;;;;;;5093048;28;20321;-60
2021/04/17 05:02:08;;;;;;;2.47;1.43;;;5.00;99.90;;;;;;5093376;28;20290;-59
2021/04/17 05:04:35;;;;;;;2.90;1.70;;;5.00;99.90;;;;;;5093367;28;20203;-59
2021/04/17 05:07:02;;;;;;;3.73;1.63;;;5.10;99.90;;;;;;5093224;28;20613;-61
2021/04/17 05:09:30;;;;;;;4.03;1.77;;;5.00;99.90;;;;;;5093245;28;20202;-60
2021/04/17 05:11:57;;;;;;;2.57;1.93;;;5.00;99.90;;;;;;5092967;28;20213;-60
2021/04/17 05:14:24;;;;;;;2.47;1.80;;;5.10;99.90;;;;;;5093129;28;20296;-59
2021/04/17 05:16:50;;;;;;;2.50;1.87;;;5.20;99.90;;;;;;5093248;28;20665;-59
2021/04/17 05:19:18;;;;;;;7.10;1.83;;;5.20;99.90;;;;;;5093136;28;20217;-63
2021/04/17 05:21:45;;;;;;;3.60;2.03;;;5.20;99.90;;;;;;5092912;28;20197;-61
2021/04/17 05:24:11;;;;;;;3.20;1.70;;;5.40;99.90;;;;;;5093047;28;20659;-61
2021/04/17 05:26:39;;;;;;;3.73;1.80;;;5.40;99.90;;;;;;5092393;28;20258;-60
2021/04/17 05:29:06;;;;;;;2.17;1.40;;;5.40;99.90;;;;;;5092942;28;20698;-61
2021/04/17 05:31:35;;;;;;;3.33;1.50;;;5.40;99.90;;;;;;5093261;28;20566;-62
2021/04/17 05:34:02;;;;;;;3.13;1.60;;;5.40;99.90;;;;;;5093237;28;20689;-61
2021/04/17 05:36:29;;;;;;;2.07;1.57;;;5.40;99.90;;;;;;5092991;28;20720;-61
2021/04/17 05:38:56;;;;;;;3.63;1.90;;;5.50;99.90;;;;;;5092576;28;20550;-61
2021/04/17 05:41:25;;;;;;;4.17;1.70;;;5.40;99.90;;;;;;5092404;28;20288;-59
2021/04/17 05:43:52;;;;;;;2.80;1.93;;;5.50;99.90;;;;;;5092958;28;20203;-61
2021/04/17 05:46:19;;;;;;;3.20;2.07;;;5.60;99.90;;;;;;5092552;28;20204;-60
2021/04/17 05:48:46;;;;;;;2.73;1.70;;;5.60;99.90;;;;;;5092695;28;20199;-60
2021/04/17 05:51:13;;;;;;;2.30;1.80;;;5.70;99.90;;;;;;5092145;28;20215;-62
2021/04/17 05:53:40;;;;;;;4.17;1.90;;;5.70;99.90;;;;;;5092467;28;20201;-59
2021/04/17 05:56:08;;;;;;;3.43;2.27;;;5.80;99.90;;;;;;5092643;28;20639;-61
2021/04/17 05:58:36;;;;;;;3.87;1.77;;;5.90;99.90;;;;;;5092041;28;20565;-61
2021/04/17 06:01:04;;;;;;;2.50;1.83;;;5.90;99.90;;;;;;5092043;28;20292;-59
2021/04/17 06:03:31;;;;;;;1.60;1.50;;;5.90;99.90;;;;;;5092619;28;20234;-62
2021/04/17 06:05:57;;;;;;;4.40;2.00;;;6.00;99.90;;;;;;5092476;28;20296;-61
2021/04/17 06:08:24;;;;;;;2.80;1.77;;;6.00;99.90;;;;;;5092561;28;20232;-60
2021/04/17 06:10:51;;;;;;;1.83;1.70;;;6.00;99.90;;;;;;5092684;28;20616;-61
2021/04/17 06:13:18;;;;;;;2.53;2.00;;;5.90;99.90;;;;;;5092203;28;20291;-63
2021/04/17 06:15:45;;;;;;;4.90;2.30;;;5.90;99.90;;;;;;5092153;28;20293;-60
2021/04/17 06:18:13;;;;;;;2.20;2.00;;;6.00;99.90;;;;;;5092891;28;20265;-61
2021/04/17 06:20:40;;;;;;;2.83;1.90;;;5.90;99.90;;;;;;5092898;28;20204;-61
2021/04/17 06:23:07;;;;;;;2.93;2.13;;;5.90;99.90;;;;;;5092628;28;20245;-61
2021/04/17 06:25:34;;;;;;;3.17;2.50;;;6.00;99.90;;;;;;5092271;28;20653;-61
2021/04/17 06:28:01;;;;;;;3.17;2.27;;;6.10;99.90;;;;;;5091815;28;20235;-61
2021/04/17 06:30:28;;;;;;;4.00;2.10;;;6.00;99.90;;;;;;5091967;28;20240;-61
2021/04/17 06:32:58;;;;;;;4.33;2.37;;;6.10;99.90;;;;;;5092313;28;20577;-61
2021/04/17 06:35:27;;;;;;;3.57;2.50;;;6.20;99.90;;;;;;5092501;28;20405;-62
2021/04/17 06:37:54;;;;;;;4.10;2.40;;;6.20;99.90;;;;;;5094073;28;20307;-61
2021/04/17 06:40:24;;;;;;;2.67;2.47;;;6.20;99.90;;;;;;5096020;28;20238;-60
2021/04/17 06:42:53;;;;;;;5.10;3.23;;;6.30;99.90;;;;;;5095728;28;20201;-60
2021/04/17 06:45:22;;;;;;;5.33;3.10;;;6.30;99.90;;;;;;5096001;28;20297;-61
2021/04/17 06:47:49;;;;;;;3.10;2.27;;;6.40;99.90;;;;;;5096175;28;20214;-60
2021/04/17 06:50:18;;;;;;;4.53;2.50;;;6.40;99.90;;;;;;5095959;28;20271;-61
2021/04/17 06:52:47;;;;;;;3.77;2.90;;;6.30;99.90;;;;;;5096022;28;20207;-61
2021/04/17 06:55:14;;;;;;;6.50;2.97;;;6.30;99.90;;;;;;5096079;28;20298;-61
2021/04/17 06:57:41;;;;;;;4.63;3.00;;;6.20;99.90;;;;;;5095617;28;20230;-60
2021/04/17 07:00:10;;;;;;;5.70;3.53;;;6.20;99.90;;;;;;5095435;28;20702;-61
2021/04/17 07:02:37;;;;;;;5.90;3.23;;;6.30;99.90;;;;;;5095355;28;20245;-61
2021/04/17 07:05:06;;;;;;;4.63;3.23;;;6.30;99.90;;;;;;5094700;28;20206;-61
2021/04/17 07:07:34;;;;;;;5.70;3.00;;;6.30;99.90;;;;;;5095854;28;20286;-61
2021/04/17 07:10:01;;;;;;;3.00;2.70;;;6.40;99.90;;;;;;5095741;28;20195;-62
2021/04/17 07:12:28;;;;;;;5.33;3.00;;;6.50;99.90;;;;;;5095264;28;20574;-62
2021/04/17 07:14:56;;;;;;;6.17;2.90;;;6.70;99.90;;;;;;5095264;28;20228;-62
2021/04/17 07:17:23;;;;;;;5.73;2.83;;;6.80;99.90;;;;;;5095309;28;20298;-61
2021/04/17 07:19:53;;;;;;;3.87;2.77;;;7.00;99.90;;;;;;5095196;28;20223;-60
2021/04/17 07:22:22;;;;;;;4.57;3.10;;;7.00;99.90;;;;;;5095311;28;20616;-61
2021/04/17 07:24:51;;;;;;;4.40;3.30;;;7.10;99.90;;;;;;5094820;28;20199;-60
2021/04/17 07:27:32;;;;;;;4.47;3.17;;;7.20;99.90;;;;;;5094699;28;20304;-60
2021/04/17 07:30:00;;;;;;;3.27;2.50;;;7.30;99.90;;;;;;5094887;28;20235;-60
2021/04/17 07:32:27;;;;;;;4.80;3.40;;;7.30;99.90;;;;;;5094966;28;20713;-62
2021/04/17 07:35:19;;;;;;;7.83;3.30;;;7.20;99.90;;;;;;5094711;28;20211;-60
2021/04/17 07:37:49;;;;;;;3.87;2.77;;;7.30;99.90;;;;;;5079793;28;20215;-60
2021/04/17 07:40:25;;;;;;;5.17;2.57;;;7.40;99.90;;;;;;5093495;28;20548;-60
2021/04/17 07:42:55;;;;;;;3.00;2.70;;;7.70;99.90;;;;;;5094901;28;20721;-61
2021/04/17 07:45:26;;;;;;;6.37;2.60;;;7.90;99.90;;;;;;5095202;28;20207;-60
2021/04/17 07:47:54;;;;;;;3.43;2.80;;;8.00;99.90;;;;;;5094587;28;20558;-60
2021/04/17 07:50:22;;;;;;;4.57;2.60;;;8.10;99.90;;;;;;5094482;28;20752;-61
2021/04/17 07:52:49;;;;;;;4.57;2.93;;;8.10;99.90;;;;;;5094974;28;20210;-60
2021/04/17 07:55:18;;;;;;;4.67;3.17;;;8.10;99.90;;;;;;5094459;28;20307;-60
2021/04/17 07:57:47;;;;;;;3.13;2.43;;;8.10;99.90;;;;;;5094372;28;20600;-61
2021/04/17 08:00:16;;;;;;;4.53;2.63;;;8.20;99.90;;;;;;5094203;28;20797;-59
2021/04/17 08:02:46;;;;;;;5.87;2.60;;;8.40;99.90;;;;;;5094446;28;20204;-60
2021/04/17 08:05:15;;;;;;;4.07;2.60;;;8.70;99.90;;;;;;5094498;28;20220;-60
2021/04/17 08:07:43;;;;;;;4.40;2.40;;;8.80;99.90;;;;;;5094461;28;20287;-61
2021/04/17 08:10:11;;;;;;;3.70;2.40;;;8.90;99.90;;;;;;5093999;28;20594;-61
2021/04/17 08:12:40;;;;;;;3.47;2.37;;;9.20;99.90;;;;;;5091112;28;20634;-61
2021/04/17 08:15:10;;;;;;;3.97;2.50;;;9.40;99.90;;;;;;5093872;28;20560;-60
2021/04/17 08:17:39;;;;;;;3.40;2.73;;;9.50;99.90;;;;;;5094158;28;20224;-61
2021/04/17 08:20:08;;;;;;;3.30;2.53;;;9.60;99.90;;;;;;5093856;28;20702;-62
2021/04/17 08:22:35;;;;;;;4.43;2.70;;;9.80;99.90;;;;;;5093908;28;20218;-61
2021/04/17 08:25:05;;;;;;;3.87;2.40;;;9.80;99.90;;;;;;5094330;28;20253;-61
2021/04/17 08:27:33;;;;;;;4.83;2.30;;;9.90;99.90;;;;;;5093522;28;20274;-62
2021/04/17 08:30:05;;;;;;;4.13;2.43;;;10.00;99.90;;;;;;5094172;28;20231;-61
2021/04/17 08:32:34;;;;;;;3.03;2.20;;;10.10;99.90;;;;;;5093470;28;20194;-61
2021/04/17 08:35:11;;;;;;;3.60;2.47;;;10.00;99.90;;;;;;5093904;28;20199;-60
2021/04/17 08:38:14;;;;;;;5.33;2.20;;;9.70;99.90;;;;;;5093898;28;20242;-61
2021/04/17 08:40:50;;;;;;;5.87;2.37;;;9.60;99.90;;;;;;5093669;28;20690;-61
2021/04/17 08:43:35;;;;;;;5.40;2.63;;;9.50;99.90;;;;;;5093123;28;20361;-61
2021/04/17 08:46:11;;;;;;;5.60;2.20;;;9.50;99.90;;;;;;5093254;28;20200;-59
2021/04/17 08:48:53;;;;;;;4.37;2.50;;;9.40;99.90;;;;;;5092579;28;20180;-60
2021/04/17 08:51:33;;;;;;;4.23;2.40;;;9.30;99.90;;;;;;5093661;28;20184;-60
2021/04/17 08:54:20;;;;;;;5.90;3.00;;;9.20;99.90;;;;;;5093443;28;20254;-60
2021/04/17 08:56:59;;;;;;;3.43;2.60;;;9.10;99.90;;;;;;5093206;28;20230;-60
2021/04/17 08:59:34;;;;;;;4.90;2.43;;;9.10;99.90;;;;;;5092975;28;20671;-62
2021/04/17 09:02:06;;;;;;;5.30;2.47;;;9.00;99.90;;;;;;5093135;28;20187;-61
2021/04/17 09:04:37;;;;;;;3.97;2.67;;;9.00;99.90;;;;;;5093306;28;20640;-60
2021/04/17 09:07:16;;;;;;;5.10;2.57;;;9.00;99.90;;;;;;5093339;28;20268;-61
2021/04/17 09:09:43;;;;;;;3.77;2.90;;;8.90;99.90;;;;;;5093349;28;20180;-60
2021/04/17 09:12:21;;;;;;;5.73;2.70;;;8.90;99.90;;;;;;5093142;28;20663;-60
2021/04/17 09:14:56;;;;;;;5.13;3.50;;;8.90;99.90;;;;;;5092992;28;20718;-59
2021/04/17 09:17:47;;;;;;;5.47;3.07;;;9.00;99.90;;;;;;5093181;28;20718;-60
2021/04/17 09:20:33;;;;;;;3.03;2.73;;;9.10;99.90;;;;;;5093180;28;20204;-60
2021/04/17 09:23:01;;;;;;;6.60;2.83;;;9.00;99.90;;;;;;5093403;28;20189;-60
2021/04/17 09:25:43;;;;;;;5.03;3.00;;;9.00;99.90;;;;;;5091782;28;20243;-61
2021/04/17 09:28:10;;;;;;;5.80;3.30;;;8.90;99.90;;;;;;5092767;28;20216;-61
2021/04/17 09:30:38;;;;;;;5.17;2.80;;;8.90;99.90;;;;;;5092980;28;20199;-60
2021/04/17 09:33:06;;;;;;;4.13;3.10;;;8.90;99.90;;;;;;5092802;28;20604;-61
2021/04/17 09:35:37;;;;;;;5.27;2.80;;;9.00;99.90;;;;;;5092761;28;20203;-61
2021/04/17 09:38:16;;;;;;;4.30;3.10;;;9.10;99.90;;;;;;5092738;28;20295;-61
2021/04/17 09:40:47;;;;;;;5.03;3.20;;;9.40;99.90;;;;;;5090706;28;20648;-60
2021/04/17 09:43:26;;;;;;;4.00;2.40;;;9.50;99.90;;;;;;5091833;28;20275;-60
2021/04/17 09:45:58;;;;;;;4.77;2.37;;;9.60;99.90;;;;;;5091614;28;20654;-59
2021/04/17 09:48:25;;;;;;;4.70;2.30;;;9.80;99.90;;;;;;5092084;28;20277;-60
2021/04/17 09:50:56;;;;;;;3.83;2.23;;;9.80;99.90;;;;;;5091844;28;20744;-59
2021/04/17 09:53:30;;;;;;;4.27;2.87;;;9.70;99.90;;;;;;5092244;28;20280;-59
2021/04/17 09:56:00;;;;;;;4.03;2.60;;;9.90;99.90;;;;;;5091623;28;20187;-59
2021/04/17 09:58:30;;;;;;;4.70;2.33;;;9.90;99.90;;;;;;5092054;28;20202;-60
2021/04/17 10:01:07;;;;;;;4.20;2.50;;;9.90;99.90;;;;;;5091917;28;20518;-60
2021/04/17 10:03:36;;;;;;;4.80;2.60;;;9.80;99.90;;;;;;5091172;28;20207;-60
2021/04/17 10:06:04;;;;;;;4.70;2.60;;;9.80;99.90;;;;;;5091686;28;20728;-60
2021/04/17 10:08:35;;;;;;;3.27;2.37;;;9.40;99.90;;;;;;5091795;28;20294;-59
2021/04/17 10:11:04;;;;;;;2.73;2.30;;;9.50;99.90;;;;;;5091886;28;20204;-59
2021/04/17 10:13:39;;;;;;;4.10;2.50;;;9.60;99.90;;;;;;5094681;28;20605;-60
2021/04/17 10:16:07;;;;;;;4.43;2.60;;;9.60;99.90;;;;;;5095996;28;20207;-59
2021/04/17 10:18:35;;;;;;;5.37;3.07;;;9.40;99.90;;;;;;5096145;28;20212;-60
2021/04/17 10:21:04;;;;;;;4.07;2.70;;;9.50;99.90;;;;;;5096253;28;20212;-60
2021/04/17 10:23:32;;;;;;;5.27;2.63;;;9.60;99.90;;;;;;5096036;28;20228;-60
2021/04/17 10:26:05;;;;;;;5.23;3.00;;;9.80;99.90;;;;;;5095513;28;20707;-61
2021/04/17 10:28:33;;;;;;;4.77;3.03;;;10.10;99.90;;;;;;5095628;28;20236;-59
2021/04/17 10:31:08;;;;;;;3.63;2.87;;;10.10;99.90;;;;;;5096180;28;20195;-59
2021/04/17 10:33:42;;;;;;;4.53;2.80;;;10.10;99.90;;;;;;5095599;28;20639;-59
2021/04/17 10:36:17;;;;;;;2.87;2.63;;;10.20;99.90;;;;;;5095733;28;20184;-57
2021/04/17 10:38:44;;;;;;;4.07;2.87;;;10.10;99.90;;;;;;5095422;28;20270;-59
2021/04/17 10:41:18;;;;;;;4.50;3.07;;;10.30;99.90;;;;;;5095260;28;20238;-60
2021/04/17 10:43:45;;;;;;;3.57;2.70;;;10.40;99.90;;;;;;5095888;28;20245;-59
2021/04/17 10:46:11;;;;;;;6.73;2.90;;;10.10;99.90;;;;;;5095602;28;20200;-58
2021/04/17 10:48:43;;;;;;;3.73;2.90;;;10.00;99.90;;;;;;5095618;28;20196;-60
2021/04/17 10:51:12;;;;;;;5.57;2.83;;;10.00;99.90;;;;;;5095427;28;20648;-59
2021/04/17 10:53:40;;;;;;;3.63;2.53;;;9.80;99.90;;;;;;5095476;28;20228;-60
2021/04/17 10:56:13;;;;;;;4.90;3.03;;;9.50;99.90;;;;;;5095250;28;20192;-61
2021/04/17 10:58:41;;;;;;;3.90;2.73;;;9.30;99.90;;;;;;5095183;28;20185;-59
2021/04/17 11:01:10;;;;;;;5.40;3.20;;;9.40;99.90;;;;;;5095407;28;20204;-58
2021/04/17 11:03:42;;;;;;;4.57;2.90;;;9.40;99.90;;;;;;5095231;28;20212;-60
2021/04/17 11:06:14;;;;;;;7.47;3.80;;;9.60;99.90;;;;;;5094640;28;20296;-59
2021/04/17 11:08:41;;;;;;;4.27;2.73;;;9.70;99.90;;;;;;5094974;28;20206;-59
2021/04/17 11:11:09;;;;;;;4.40;2.70;;;9.80;99.90;;;;;;5094980;28;20208;-59
2021/04/17 11:13:38;;;;;;;6.13;2.93;;;9.80;99.90;;;;;;5094831;28;20706;-60
2021/04/17 11:16:05;;;;;;;5.57;3.07;;;9.80;99.90;;;;;;5094328;28;20195;-60
2021/04/17 11:18:35;;;;;;;6.60;3.03;;;9.90;99.90;;;;;;5094926;28;20672;-59
2021/04/17 11:21:05;;;;;;;4.53;2.77;;;9.80;99.90;;;;;;5094786;28;20212;-59
2021/04/17 11:23:52;;;;;;;4.30;2.77;;;9.80;99.90;;;;;;5094424;28;20282;-60
2021/04/17 11:26:20;;;;;;;3.37;2.73;;;9.90;99.90;;;;;;5094568;28;20184;-59
2021/04/17 11:28:49;;;;;;;5.27;2.70;;;9.90;99.90;;;;;;5094977;28;20280;-59
2021/04/17 11:31:19;;;;;;;3.80;2.37;;;9.80;99.90;;;;;;5095137;28;20296;-60
2021/04/17 11:33:48;;;;;;;4.80;2.37;;;9.80;99.90;;;;;;5095264;28;20534;-61
2021/04/17 11:36:19;;;;;;;3.97;2.63;;;9.90;99.90;;;;;;5094809;28;20184;-59
2021/04/17 11:38:46;;;;;;;3.90;2.50;;;10.00;99.90;;;;;;5095010;28;20294;-59
2021/04/17 11:41:13;;;;;;;5.63;2.73;;;10.00;99.90;;;;;;5094455;28;20659;-59
2021/04/17 11:43:40;;;;;;;6.20;2.60;;;10.10;99.90;;;;;;5094614;28;20520;-60
2021/04/17 11:46:09;;;;;;;4.07;2.90;;;10.40;99.90;;;;;;5094679;28;20204;-60
2021/04/17 11:48:39;;;;;;;6.93;2.60;;;10.60;99.90;;;;;;5094271;28;20194;-60
2021/04/17 11:51:06;;;;;;;4.67;2.80;;;10.60;99.90;;;;;;5094069;28;20212;-61
2021/04/17 11:53:33;;;;;;;6.27;2.57;;;10.50;99.90;;;;;;5083327;28;20209;-60
2021/04/17 11:56:01;;;;;;;6.73;3.23;;;10.60;99.90;;;;;;5088685;28;20195;-60
2021/04/17 11:58:28;;;;;;;3.37;2.60;;;10.70;99.90;;;;;;5094991;28;20291;-60
2021/04/17 12:00:55;;;;;;;3.77;2.67;;;10.80;99.90;;;;;;5094319;28;20211;-61
2021/04/17 12:03:23;;;;;;;4.23;2.90;;;10.80;99.90;;;;;;5094728;28;20813;-60
2021/04/17 12:05:51;;;;;;;6.17;2.97;;;10.80;99.90;;;;;;5093995;28;20206;-60
2021/04/17 12:08:18;;;;;;;5.70;3.93;;;10.90;99.90;;;;;;5094080;28;20762;-60
2021/04/17 12:10:45;;;;;;;5.80;3.10;;;10.80;99.90;;;;;;5094058;28;20192;-60
2021/04/17 12:13:12;;;;;;;5.03;3.23;;;10.80;99.90;;;;;;5094036;28;20242;-60
2021/04/17 12:15:40;;;;;;;4.93;3.10;;;10.60;99.90;;;;;;5093976;28;20655;-60
2021/04/17 12:18:07;;;;;;;5.87;3.13;;;10.40;99.90;;;;;;5094195;28;20208;-64
2021/04/17 12:20:35;;;;;;;6.43;3.33;;;10.40;99.90;;;;;;5093837;28;20712;-58
2021/04/17 12:23:02;;;;;;;4.37;3.07;;;10.50;99.90;;;;;;5094207;28;20204;-61
2021/04/17 12:25:30;;;;;;;4.13;3.27;;;10.60;99.90;;;;;;5093427;28;20252;-60
2021/04/17 12:27:57;;;;;;;5.93;3.83;;;10.70;99.90;;;;;;5093749;28;20319;-59
2021/04/17 12:30:25;;;;;;;5.17;3.27;;;10.90;99.90;;;;;;5093945;28;20231;-61
2021/04/17 12:33:06;;;;;;;5.77;3.50;;;11.10;99.90;;;;;;5090230;28;20683;-59
2021/04/17 12:35:34;;;;;;;7.00;3.27;;;11.10;99.90;;;;;;5095401;28;20579;-60
2021/04/17 12:38:01;;;;;;;8.03;3.40;;;11.00;99.90;;;;;;5093428;28;20204;-60
2021/04/17 12:40:34;;;;;;;6.53;3.37;;;11.20;99.90;;;;;;5092437;28;20216;-61
2021/04/17 12:43:01;;;;;;;6.37;3.30;;;11.30;99.90;;;;;;5092600;28;20665;-60
2021/04/17 12:45:28;;;;;;;4.97;3.50;;;11.60;99.90;;;;;;5093353;28;20224;-61
2021/04/17 12:47:55;;;;;;;4.33;3.13;;;11.70;99.90;;;;;;5093562;28;20290;-60
2021/04/17 12:50:22;;;;;;;5.97;3.50;;;11.90;99.90;;;;;;5093317;28;20230;-61
2021/04/17 12:52:50;;;;;;;4.23;3.00;;;12.10;99.90;;;;;;5093430;28;20290;-60
2021/04/17 12:55:16;;;;;;;6.13;3.67;;;12.10;99.90;;;;;;5094095;28;20196;-59
2021/04/17 12:57:43;;;;;;;5.80;3.33;;;11.80;99.90;;;;;;5093409;28;20299;-61
2021/04/17 13:00:12;;;;;;;6.97;3.53;;;11.80;99.90;;;;;;5092986;28;20258;-62
2021/04/17 13:02:39;;;;;;;4.33;2.73;;;11.90;99.90;;;;;;5093235;28;20230;-59
2021/04/17 13:05:07;;;;;;;4.97;3.07;;;11.90;99.90;;;;;;5093015;28;20219;-61